Main page
METAR-TAF:

METAR-TAF

Airports :

El Obeid Airport

Al-Ubayyid, Sudan

latitude: 13-10N, longitude: 030-14E, elevation: 574 m

METAR: missing

Time: 10:30 (08:30 UTC)

Forecast

The report was made 3 hours and 30 minutes ago, at 05:00 UTC
Forecast valid from 30 at 06 UTC to 31 at 12 UTC
Wind 12 kt from the South with gusts up to 22 kt
Visibility 10 km or more
Few clouds at a height of 4000 ft
Scattered clouds at a height of 14000 ft
Temporary
from 30 at 14 UTC to 30 at 21 UTC
Visibility: 6000 m
Few clouds at a height of 4500 ft, Cumulonimbus.
thunderstorm, rain

TAF: HSOB 300500Z 3006/3112 18012G22KT 9999 FEW040 SCT140 TEMPO 3014/3021 6000 TSRA FEW045CB

Weather observations and forecasts of more than 4000 airports (METAR and TAF reports).

The available stations are represented by yellow and red dots on the map.

Hover mouse over dot to see the name of the station.

Then click to see weather observations and forecasts.

To change the map : click on the green buttons with a black cross to zoom in, on the green button with a dash to zoom out, or on the green arrows for adjacent maps.


METAR-TAF: